createdAt,value
2022-11-29T00:00:58.334Z,9.10
2022-11-29T00:03:47.034Z,9.53
2022-11-29T00:06:35.660Z,9.30
2022-11-29T00:09:24.041Z,8.70
2022-11-29T00:12:15.504Z,9.03
2022-11-29T00:15:05.746Z,8.87
2022-11-29T00:17:54.325Z,9.00
2022-11-29T00:20:42.722Z,8.97
2022-11-29T00:23:31.100Z,8.80
2022-11-29T00:26:19.604Z,9.00
2022-11-29T00:29:08.106Z,8.47
2022-11-29T00:31:57.808Z,8.53
2022-11-29T00:34:46.902Z,8.60
2022-11-29T00:37:35.291Z,9.20
2022-11-29T00:40:23.881Z,9.43
2022-11-29T00:43:12.282Z,9.10
2022-11-29T00:46:00.744Z,9.03
2022-11-29T00:48:50.501Z,8.60
2022-11-29T00:51:38.926Z,9.03
2022-11-29T00:54:27.471Z,8.57
2022-11-29T00:57:15.858Z,8.07
2022-11-29T01:00:05.058Z,8.97
2022-11-29T01:02:53.480Z,8.87
2022-11-29T01:05:43.842Z,8.20
2022-11-29T01:08:32.218Z,9.07
2022-11-29T01:11:22.213Z,8.20
2022-11-29T01:14:11.219Z,8.73
2022-11-29T01:16:59.645Z,8.47
2022-11-29T01:19:50.964Z,8.33
2022-11-29T01:22:40.963Z,8.60
2022-11-29T01:25:29.407Z,8.77
2022-11-29T01:28:17.791Z,9.13
2022-11-29T01:31:09.928Z,8.90
2022-11-29T01:33:59.478Z,8.73
2022-11-29T01:36:47.837Z,9.07
2022-11-29T01:39:37.774Z,8.83
2022-11-29T01:42:26.302Z,8.17
2022-11-29T01:45:23.496Z,8.63
2022-11-29T01:48:12.358Z,8.23
2022-11-29T01:51:01.588Z,8.90
2022-11-29T01:53:49.988Z,8.07
2022-11-29T01:56:39.854Z,8.60
2022-11-29T01:59:29.761Z,9.40
2022-11-29T02:02:20.978Z,8.80
2022-11-29T02:05:10.489Z,8.73
2022-11-29T02:07:59.146Z,8.97
2022-11-29T02:11:00.594Z,9.10
2022-11-29T02:13:57.373Z,8.53
2022-11-29T02:16:56.270Z,9.10
2022-11-29T02:20:20.966Z,9.33
2022-11-29T02:23:24.593Z,9.43
2022-11-29T02:26:22.277Z,9.40
2022-11-29T02:29:38.775Z,9.07
2022-11-29T02:33:27.109Z,10.27
2022-11-29T02:36:29.639Z,9.43
2022-11-29T02:39:41.108Z,10.10
2022-11-29T02:43:16.041Z,10.67
2022-11-29T02:46:19.772Z,10.07
2022-11-29T02:49:15.448Z,10.37
2022-11-29T02:52:05.814Z,10.63
2022-11-29T02:54:57.725Z,10.77
2022-11-29T02:57:51.474Z,12.20
2022-11-29T03:00:43.049Z,12.53
2022-11-29T03:03:36.692Z,11.80
2022-11-29T03:06:32.888Z,11.77
2022-11-29T03:09:27.126Z,12.30
2022-11-29T03:12:20.713Z,10.97
2022-11-29T03:15:20.606Z,10.73
2022-11-29T03:18:23.500Z,11.60
2022-11-29T03:21:19.079Z,11.37
2022-11-29T03:24:13.709Z,11.30
2022-11-29T03:27:05.303Z,10.83
2022-11-29T03:29:57.798Z,11.27
2022-11-29T03:32:51.655Z,11.27
2022-11-29T03:35:43.396Z,9.97
2022-11-29T03:38:37.763Z,10.93
2022-11-29T03:41:32.167Z,11.17
2022-11-29T03:44:23.690Z,10.60
2022-11-29T03:47:14.967Z,10.77
2022-11-29T03:50:06.873Z,12.27
2022-11-29T03:52:57.020Z,13.97
2022-11-29T03:55:53.636Z,17.20
2022-11-29T03:58:50.069Z,13.57
2022-11-29T04:02:12.066Z,13.53
2022-11-29T04:05:30.596Z,13.63
2022-11-29T04:08:47.460Z,13.23
2022-11-29T04:12:22.324Z,13.87
2022-11-29T04:16:04.290Z,13.80
2022-11-29T04:19:26.652Z,11.37
2022-11-29T04:22:29.483Z,11.60
2022-11-29T04:25:47.226Z,13.13
2022-11-29T04:28:56.999Z,13.50
2022-11-29T04:32:02.630Z,13.50
2022-11-29T04:35:08.653Z,13.17
2022-11-29T04:38:30.729Z,15.10
2022-11-29T04:41:35.037Z,14.90
2022-11-29T04:44:46.215Z,14.37
2022-11-29T04:47:52.920Z,15.17
2022-11-29T04:50:49.230Z,14.13
2022-11-29T04:53:53.910Z,14.00
2022-11-29T04:56:45.796Z,14.80
2022-11-29T04:59:40.570Z,14.97
2022-11-29T05:02:35.625Z,12.50
2022-11-29T05:05:32.213Z,12.77
2022-11-29T05:08:27.694Z,13.50
2022-11-29T05:11:26.325Z,14.77
2022-11-29T05:14:21.341Z,11.73
2022-11-29T05:17:26.949Z,13.53
2022-11-29T05:20:25.298Z,12.70
2022-11-29T05:23:30.489Z,14.13
2022-11-29T05:26:23.916Z,12.77
2022-11-29T05:29:13.873Z,12.90
2022-11-29T05:32:15.660Z,12.30
2022-11-29T05:35:41.751Z,12.87
2022-11-29T05:38:57.749Z,13.27
2022-11-29T05:41:57.846Z,14.73
2022-11-29T05:44:47.489Z,14.40
2022-11-29T05:47:41.186Z,14.37
2022-11-29T05:50:33.475Z,13.13
2022-11-29T05:53:32.277Z,16.27
2022-11-29T05:56:27.445Z,14.57
2022-11-29T05:59:19.154Z,14.07
2022-11-29T06:02:18.873Z,15.97
2022-11-29T06:05:12.994Z,16.30
2022-11-29T06:08:06.220Z,16.30
2022-11-29T06:11:00.651Z,15.37
2022-11-29T06:14:05.518Z,13.97
2022-11-29T06:17:03.499Z,14.47
2022-11-29T06:20:00.873Z,15.03
2022-11-29T06:23:18.154Z,16.73
2022-11-29T06:26:19.106Z,14.80
2022-11-29T06:29:26.495Z,14.50
2022-11-29T06:32:22.532Z,12.90
2022-11-29T06:35:13.143Z,11.73
2022-11-29T06:38:02.657Z,13.70
2022-11-29T06:40:53.965Z,13.87
2022-11-29T06:43:45.116Z,12.47
2022-11-29T06:46:47.377Z,12.67
2022-11-29T06:49:39.870Z,11.57
2022-11-29T06:52:31.633Z,11.43
2022-11-29T06:55:23.670Z,12.03
2022-11-29T06:58:23.673Z,12.10
2022-11-29T07:01:20.504Z,10.27
2022-11-29T07:04:05.925Z,10.80
2022-11-29T07:06:34.088Z,11.63
2022-11-29T07:09:06.743Z,11.53
2022-11-29T07:11:35.764Z,10.23
2022-11-29T07:14:04.591Z,11.80
2022-11-29T07:16:36.361Z,14.03
2022-11-29T07:19:13.528Z,18.13
2022-11-29T07:21:50.506Z,19.67
2022-11-29T07:24:29.732Z,19.90
2022-11-29T07:27:02.220Z,21.27
2022-11-29T07:29:34.177Z,19.23
2022-11-29T07:32:13.690Z,18.43
2022-11-29T07:34:50.550Z,18.33
2022-11-29T07:37:24.458Z,19.70
2022-11-29T07:39:56.259Z,18.97
2022-11-29T07:42:27.007Z,23.27
2022-11-29T07:45:01.044Z,20.13
2022-11-29T07:47:35.328Z,20.63
2022-11-29T07:50:06.363Z,20.73
2022-11-29T07:52:34.535Z,18.97
2022-11-29T07:55:03.045Z,21.00
2022-11-29T07:57:31.249Z,20.23
2022-11-29T07:59:59.350Z,20.70
2022-11-29T08:02:29.021Z,21.30
2022-11-29T08:04:57.288Z,19.80
2022-11-29T08:07:26.834Z,20.20
2022-11-29T08:09:55.183Z,20.03
2022-11-29T08:12:23.330Z,31.97
2022-11-29T08:14:51.524Z,43.57
2022-11-29T08:17:19.898Z,23.20
2022-11-29T08:19:48.122Z,27.80
2022-11-29T08:22:16.243Z,33.77
2022-11-29T08:24:45.958Z,19.33
2022-11-29T08:27:14.235Z,20.43
2022-11-29T08:29:42.408Z,16.87
2022-11-29T08:32:10.779Z,20.47
2022-11-29T08:34:38.871Z,20.47
2022-11-29T08:37:07.021Z,21.10
2022-11-29T08:39:35.314Z,18.33
2022-11-29T08:42:07.522Z,20.53
2022-11-29T08:44:35.655Z,18.17
2022-11-29T08:47:21.682Z,18.00
2022-11-29T08:50:03.671Z,22.70
2022-11-29T08:52:50.305Z,19.10
2022-11-29T08:55:19.893Z,18.57
2022-11-29T08:57:52.114Z,16.90
2022-11-29T09:00:21.858Z,17.50
2022-11-29T09:02:50.142Z,21.03
2022-11-29T09:05:18.428Z,19.03
2022-11-29T09:07:49.640Z,17.93
2022-11-29T09:10:17.867Z,17.20
2022-11-29T09:12:46.302Z,17.97
2022-11-29T09:15:15.958Z,17.20
2022-11-29T09:17:44.069Z,18.60
2022-11-29T09:20:13.943Z,32.23
2022-11-29T09:22:45.473Z,16.73
2022-11-29T09:25:15.850Z,15.80
2022-11-29T09:27:45.368Z,15.40
2022-11-29T09:30:20.572Z,15.80
2022-11-29T09:32:51.561Z,15.40
2022-11-29T09:35:19.830Z,15.50
2022-11-29T09:37:48.037Z,16.00
2022-11-29T09:40:19.045Z,14.57
2022-11-29T09:42:54.957Z,15.10
2022-11-29T09:45:30.134Z,14.77
2022-11-29T09:48:27.156Z,12.93
2022-11-29T09:50:58.936Z,12.37
2022-11-29T09:53:43.511Z,13.77
2022-11-29T09:56:18.792Z,12.90
2022-11-29T09:58:49.385Z,14.20
2022-11-29T10:01:22.734Z,14.27
2022-11-29T10:03:52.947Z,14.50
2022-11-29T10:06:25.413Z,14.63
2022-11-29T10:08:57.192Z,14.20
2022-11-29T10:11:29.607Z,13.97
2022-11-29T10:14:00.053Z,14.40
2022-11-29T10:16:40.769Z,14.53
2022-11-29T10:19:15.589Z,14.27
2022-11-29T10:21:46.550Z,14.20
2022-11-29T10:24:17.892Z,14.60
2022-11-29T10:26:46.052Z,15.60
2022-11-29T10:29:15.086Z,14.87
2022-11-29T10:31:46.883Z,18.47
2022-11-29T10:34:16.600Z,15.47
2022-11-29T10:36:47.348Z,15.47
2022-11-29T10:39:18.353Z,15.20
2022-11-29T10:41:46.467Z,17.50
2022-11-29T10:44:15.447Z,18.40
2022-11-29T10:46:44.953Z,16.73
2022-11-29T10:49:15.754Z,18.27
2022-11-29T10:51:43.976Z,14.80
2022-11-29T10:54:35.551Z,20.70
2022-11-29T10:57:04.267Z,22.67
2022-11-29T10:59:33.142Z,18.03
2022-11-29T11:02:04.111Z,17.33
2022-11-29T11:04:34.667Z,16.80
2022-11-29T11:07:03.834Z,35.03
2022-11-29T11:09:35.264Z,14.90
2022-11-29T11:12:05.559Z,16.30
2022-11-29T11:14:36.967Z,18.47
2022-11-29T11:17:22.411Z,20.67
2022-11-29T11:19:56.956Z,16.67
2022-11-29T11:22:25.803Z,15.77
2022-11-29T11:24:59.571Z,13.43
2022-11-29T11:27:32.765Z,14.77
2022-11-29T11:30:01.273Z,13.67
2022-11-29T11:32:30.796Z,13.17
2022-11-29T11:34:59.534Z,15.03
2022-11-29T11:37:28.628Z,14.73
2022-11-29T11:39:58.335Z,13.50
2022-11-29T11:42:38.389Z,15.30
2022-11-29T11:45:28.225Z,12.87
2022-11-29T11:47:59.400Z,12.90
2022-11-29T11:50:33.824Z,12.70
2022-11-29T11:53:05.402Z,14.20
2022-11-29T11:55:38.742Z,13.10
2022-11-29T11:58:17.057Z,13.40
2022-11-29T12:01:04.095Z,12.87
2022-11-29T12:03:45.545Z,12.80
2022-11-29T12:06:26.423Z,13.90
2022-11-29T12:08:57.105Z,13.83
2022-11-29T12:11:25.475Z,14.10
2022-11-29T12:13:56.510Z,15.83
2022-11-29T12:16:28.511Z,15.43
2022-11-29T12:19:02.033Z,14.47
2022-11-29T12:21:34.302Z,15.10
2022-11-29T12:24:06.600Z,14.40
2022-11-29T12:26:58.300Z,13.90
2022-11-29T12:29:28.986Z,14.17
2022-11-29T12:32:07.154Z,13.80
2022-11-29T12:34:54.101Z,13.40
2022-11-29T12:37:25.624Z,13.10
2022-11-29T12:39:58.079Z,13.97
2022-11-29T12:42:36.271Z,13.30
2022-11-29T12:45:27.075Z,12.47
2022-11-29T12:48:02.302Z,12.87
2022-11-29T12:50:39.887Z,13.70
2022-11-29T12:53:26.832Z,13.57
2022-11-29T12:56:01.176Z,12.87
2022-11-29T12:58:32.502Z,13.40
2022-11-29T13:01:05.444Z,13.63
2022-11-29T13:03:39.777Z,16.10
2022-11-29T13:06:19.063Z,14.83
2022-11-29T13:09:17.254Z,14.10
2022-11-29T13:11:47.169Z,15.40
2022-11-29T13:14:41.972Z,15.70
2022-11-29T13:17:17.887Z,15.03
2022-11-29T13:19:49.216Z,15.03
2022-11-29T13:22:22.299Z,15.77
2022-11-29T13:24:52.698Z,15.27
2022-11-29T13:27:23.392Z,17.10
2022-11-29T13:29:51.599Z,15.80
2022-11-29T13:32:31.420Z,16.40
2022-11-29T13:35:02.095Z,18.70
2022-11-29T13:37:35.335Z,19.83
2022-11-29T13:40:15.010Z,19.10
2022-11-29T13:42:46.157Z,17.83
2022-11-29T13:45:20.401Z,18.23
2022-11-29T13:47:52.152Z,18.30
2022-11-29T13:50:40.245Z,18.53
2022-11-29T13:53:16.094Z,18.77
2022-11-29T13:55:49.249Z,20.00
2022-11-29T13:58:37.179Z,20.47
2022-11-29T14:01:08.358Z,19.07
2022-11-29T14:03:39.505Z,20.80
2022-11-29T14:06:14.008Z,18.90
2022-11-29T14:09:24.728Z,22.10
2022-11-29T14:12:04.254Z,21.40
2022-11-29T14:14:36.789Z,21.20
2022-11-29T14:17:05.983Z,20.03
2022-11-29T14:19:34.565Z,20.80
2022-11-29T14:22:31.089Z,20.90
2022-11-29T14:25:11.888Z,21.30
2022-11-29T14:28:20.786Z,21.97
2022-11-29T14:30:51.767Z,20.13
2022-11-29T14:33:57.437Z,21.67
2022-11-29T14:36:38.074Z,22.60
2022-11-29T14:39:32.519Z,20.00
2022-11-29T14:42:14.416Z,22.27
2022-11-29T14:44:48.599Z,21.60
2022-11-29T14:47:25.750Z,22.90
2022-11-29T14:49:55.835Z,20.87
2022-11-29T14:52:29.177Z,21.60
2022-11-29T14:55:30.419Z,21.73
2022-11-29T14:58:21.127Z,20.53
2022-11-29T15:01:09.851Z,20.63
2022-11-29T15:03:49.604Z,21.07
2022-11-29T15:06:26.474Z,22.57
2022-11-29T15:09:00.364Z,22.70
2022-11-29T15:11:49.458Z,21.50
2022-11-29T15:14:23.388Z,21.87
2022-11-29T15:17:19.049Z,20.93
2022-11-29T15:20:11.059Z,20.60
2022-11-29T15:22:47.358Z,20.37
2022-11-29T15:25:17.937Z,19.40
2022-11-29T15:27:53.713Z,18.47
2022-11-29T15:30:29.475Z,20.20
2022-11-29T15:32:57.902Z,19.10
2022-11-29T15:35:27.457Z,19.83
2022-11-29T15:37:55.658Z,21.90
2022-11-29T15:40:26.231Z,22.27
2022-11-29T15:43:00.047Z,20.93
2022-11-29T15:45:32.277Z,20.03
2022-11-29T15:48:20.125Z,19.07
2022-11-29T15:51:01.743Z,19.70
2022-11-29T15:53:35.287Z,18.77
2022-11-29T15:56:04.707Z,19.27
2022-11-29T15:58:33.111Z,21.43
2022-11-29T16:01:01.462Z,20.47
2022-11-29T16:03:30.860Z,20.93
2022-11-29T16:06:04.953Z,23.80
2022-11-29T16:08:36.265Z,20.87
2022-11-29T16:11:06.079Z,20.83
2022-11-29T16:13:49.687Z,21.07
2022-11-29T16:16:20.975Z,20.57
2022-11-29T16:18:50.314Z,19.23
2022-11-29T16:21:30.695Z,19.00
2022-11-29T16:24:22.213Z,19.47
2022-11-29T16:26:50.902Z,18.83
2022-11-29T16:29:24.802Z,19.43
2022-11-29T16:31:53.592Z,17.43
2022-11-29T16:34:33.876Z,15.67
2022-11-29T16:37:06.470Z,16.67
2022-11-29T16:39:35.038Z,15.53
2022-11-29T16:42:08.490Z,14.73
2022-11-29T16:44:59.422Z,14.33
2022-11-29T16:47:35.397Z,15.40
2022-11-29T16:50:23.631Z,15.23
2022-11-29T16:53:00.907Z,15.00
2022-11-29T16:55:32.690Z,14.57
2022-11-29T16:58:01.200Z,15.17
2022-11-29T17:00:35.407Z,16.07
2022-11-29T17:03:04.080Z,16.00
2022-11-29T17:05:32.758Z,16.30
2022-11-29T17:08:03.928Z,15.97
2022-11-29T17:10:41.329Z,15.23
2022-11-29T17:13:10.712Z,15.43
2022-11-29T17:15:38.942Z,16.50
2022-11-29T17:18:07.297Z,15.20
2022-11-29T17:20:35.611Z,13.27
2022-11-29T17:23:05.831Z,12.03
2022-11-29T17:25:34.233Z,12.10
2022-11-29T17:28:02.878Z,12.47
2022-11-29T17:30:31.880Z,12.07
2022-11-29T17:33:00.504Z,12.90
2022-11-29T17:35:28.881Z,12.07
2022-11-29T17:37:57.398Z,13.57
2022-11-29T17:40:34.553Z,14.17
2022-11-29T17:43:05.987Z,15.07
2022-11-29T17:45:34.563Z,21.23
2022-11-29T17:48:02.891Z,18.53
2022-11-29T17:50:34.203Z,17.33
2022-11-29T17:53:02.602Z,15.17
2022-11-29T17:55:32.394Z,14.33
2022-11-29T17:58:01.029Z,14.50
2022-11-29T18:00:29.518Z,14.00
2022-11-29T18:02:57.892Z,13.63
2022-11-29T18:05:34.538Z,12.90
2022-11-29T18:08:06.423Z,12.60
2022-11-29T18:10:36.395Z,13.20
2022-11-29T18:13:04.800Z,13.13
2022-11-29T18:15:34.110Z,14.13
2022-11-29T18:18:02.903Z,14.40
2022-11-29T18:20:36.200Z,14.33
2022-11-29T18:23:07.930Z,13.83
2022-11-29T18:25:39.692Z,12.77
2022-11-29T18:28:17.032Z,14.27
2022-11-29T18:30:50.844Z,14.40
2022-11-29T18:33:19.347Z,13.30
2022-11-29T18:35:47.831Z,11.73
2022-11-29T18:38:16.704Z,9.90
2022-11-29T18:40:46.829Z,9.60
2022-11-29T18:43:24.842Z,8.17
2022-11-29T18:45:53.716Z,8.33
2022-11-29T18:48:22.341Z,7.30
2022-11-29T18:50:50.899Z,8.10
2022-11-29T18:53:19.196Z,7.27
2022-11-29T18:55:49.136Z,7.50
2022-11-29T18:58:17.566Z,7.70
2022-11-29T19:00:45.908Z,7.47
2022-11-29T19:03:14.350Z,6.80
2022-11-29T19:05:57.397Z,7.93
2022-11-29T19:08:31.598Z,8.03
2022-11-29T19:11:05.343Z,10.07
2022-11-29T19:17:15.980Z,9.73
2022-11-29T19:19:44.404Z,11.63
2022-11-29T19:22:12.935Z,12.60
2022-11-29T19:24:41.058Z,11.47
2022-11-29T19:27:10.493Z,9.10
2022-11-29T19:29:39.880Z,11.90
2022-11-29T19:32:09.444Z,11.03
2022-11-29T19:34:37.583Z,11.27
2022-11-29T19:37:06.310Z,10.13
2022-11-29T19:39:34.681Z,9.80
2022-11-29T19:42:02.885Z,9.00
2022-11-29T19:44:48.226Z,9.67
2022-11-29T19:47:20.490Z,10.07
2022-11-29T19:49:48.787Z,10.33
2022-11-29T19:52:17.036Z,10.03
2022-11-29T19:54:45.176Z,10.33
2022-11-29T19:57:13.282Z,10.43
2022-11-29T19:59:42.754Z,9.60
2022-11-29T20:02:11.754Z,9.77
2022-11-29T20:04:40.033Z,8.70
2022-11-29T20:07:08.185Z,9.10
2022-11-29T20:09:36.344Z,10.17
2022-11-29T20:12:04.798Z,9.00
2022-11-29T20:14:33.048Z,9.43
2022-11-29T20:17:02.466Z,9.03
2022-11-29T20:19:30.811Z,8.73
2022-11-29T20:21:58.944Z,6.83
2022-11-29T20:24:27.069Z,6.57
2022-11-29T20:26:55.207Z,6.80
2022-11-29T20:29:27.104Z,7.23
2022-11-29T20:31:55.211Z,7.13
2022-11-29T20:34:25.127Z,7.77
2022-11-29T20:37:25.061Z,7.63
2022-11-29T20:39:57.795Z,8.33
2022-11-29T20:42:48.053Z,7.80
2022-11-29T20:45:17.508Z,7.23
2022-11-29T20:47:51.582Z,7.80
2022-11-29T20:50:23.982Z,7.10
2022-11-29T20:53:11.135Z,7.53
2022-11-29T20:55:43.654Z,6.93
2022-11-29T20:58:15.769Z,7.00
2022-11-29T21:00:43.911Z,7.53
2022-11-29T21:03:30.851Z,7.30
2022-11-29T21:06:20.663Z,7.07
2022-11-29T21:09:09.098Z,7.23
2022-11-29T21:11:58.668Z,5.97
2022-11-29T21:14:47.925Z,6.03
2022-11-29T21:17:37.235Z,7.63
2022-11-29T21:20:26.909Z,7.87
2022-11-29T21:23:21.280Z,8.97
2022-11-29T21:26:14.010Z,9.00
2022-11-29T21:29:13.651Z,9.30
2022-11-29T21:32:02.965Z,8.50
2022-11-29T21:34:51.599Z,9.03
2022-11-29T21:37:40.071Z,9.97
2022-11-29T21:40:30.153Z,10.13
2022-11-29T21:43:18.767Z,11.83
2022-11-29T21:46:07.589Z,11.67
2022-11-29T21:48:56.047Z,12.53
2022-11-29T21:51:44.421Z,11.43
2022-11-29T21:54:32.841Z,11.00
2022-11-29T21:57:22.571Z,11.20
2022-11-29T22:00:12.187Z,11.37
2022-11-29T22:03:00.596Z,12.40
2022-11-29T22:05:49.185Z,10.83
2022-11-29T22:08:38.833Z,11.20
2022-11-29T22:11:34.291Z,11.43
2022-11-29T22:14:24.336Z,11.73
2022-11-29T22:17:12.774Z,12.67
2022-11-29T22:20:01.172Z,11.30
2022-11-29T22:22:49.611Z,12.57
2022-11-29T22:25:38.028Z,12.83
2022-11-29T22:28:26.443Z,12.33
2022-11-29T22:31:16.355Z,12.97
2022-11-29T22:34:04.842Z,12.43
2022-11-29T22:36:53.247Z,12.63
2022-11-29T22:39:41.659Z,12.37
2022-11-29T22:42:30.077Z,11.83
2022-11-29T22:45:18.497Z,12.07
2022-11-29T22:48:08.300Z,11.70
2022-11-29T22:51:04.419Z,12.10
2022-11-29T22:53:54.120Z,11.60
2022-11-29T22:56:43.593Z,12.93
2022-11-29T22:59:31.984Z,12.53
2022-11-29T23:02:20.454Z,12.90
2022-11-29T23:05:10.718Z,12.43
2022-11-29T23:07:59.223Z,11.90
2022-11-29T23:10:55.774Z,12.63
2022-11-29T23:13:44.592Z,12.67
2022-11-29T23:16:33.510Z,12.10
2022-11-29T23:19:21.965Z,12.67
2022-11-29T23:22:11.682Z,13.00
2022-11-29T23:25:00.191Z,12.03
2022-11-29T23:27:50.653Z,11.80
2022-11-29T23:30:39.053Z,11.50
2022-11-29T23:33:27.700Z,11.70
2022-11-29T23:36:16.546Z,12.57
2022-11-29T23:39:06.441Z,12.70
2022-11-29T23:41:54.829Z,11.70
2022-11-29T23:44:43.206Z,12.63
2022-11-29T23:47:31.634Z,11.97
2022-11-29T23:50:20.047Z,10.97
2022-11-29T23:53:08.529Z,11.40
2022-11-29T23:55:59.234Z,11.23
2022-11-29T23:58:47.674Z,11.77
